sensor_id;sensor_type;location;lat;lon;timestamp;P1;durP1;ratioP1;P2;durP2;ratioP2
23260;SDS011;11799;47.740;-3.390;2022-10-22T00:00:15;31.48;;;4.40;;
23260;SDS011;11799;47.740;-3.390;2022-10-22T00:02:42;28.60;;;4.28;;
23260;SDS011;11799;47.740;-3.390;2022-10-22T00:05:07;28.55;;;4.57;;
23260;SDS011;11799;47.740;-3.390;2022-10-22T00:07:33;26.35;;;3.55;;
23260;SDS011;11799;47.740;-3.390;2022-10-22T00:09:59;41.42;;;5.13;;
23260;SDS011;11799;47.740;-3.390;2022-10-22T00:12:25;34.67;;;4.03;;
23260;SDS011;11799;47.740;-3.390;2022-10-22T00:14:51;32.22;;;4.30;;
23260;SDS011;11799;47.740;-3.390;2022-10-22T00:17:16;23.85;;;4.07;;
23260;SDS011;11799;47.740;-3.390;2022-10-22T00:19:42;26.73;;;3.63;;
23260;SDS011;11799;47.740;-3.390;2022-10-22T00:22:08;28.92;;;4.05;;
23260;SDS011;11799;47.740;-3.390;2022-10-22T00:24:36;27.75;;;3.25;;
23260;SDS011;11799;47.740;-3.390;2022-10-22T00:27:03;32.00;;;4.18;;
23260;SDS011;11799;47.740;-3.390;2022-10-22T00:29:30;29.60;;;3.50;;
23260;SDS011;11799;47.740;-3.390;2022-10-22T00:31:56;31.13;;;3.30;;
23260;SDS011;11799;47.740;-3.390;2022-10-22T00:34:22;27.00;;;3.40;;
23260;SDS011;11799;47.740;-3.390;2022-10-22T00:36:48;26.05;;;3.85;;
23260;SDS011;11799;47.740;-3.390;2022-10-22T00:39:15;28.88;;;3.50;;
23260;SDS011;11799;47.740;-3.390;2022-10-22T00:41:43;25.25;;;3.40;;
23260;SDS011;11799;47.740;-3.390;2022-10-22T00:47:13;20.58;;;3.28;;
23260;SDS011;11799;47.740;-3.390;2022-10-22T00:49:40;29.08;;;3.90;;
23260;SDS011;11799;47.740;-3.390;2022-10-22T00:52:06;22.98;;;3.40;;
23260;SDS011;11799;47.740;-3.390;2022-10-22T00:54:32;36.83;;;4.35;;
23260;SDS011;11799;47.740;-3.390;2022-10-22T00:56:59;30.42;;;4.28;;
23260;SDS011;11799;47.740;-3.390;2022-10-22T00:59:25;25.05;;;3.63;;
23260;SDS011;11799;47.740;-3.390;2022-10-22T01:01:52;31.02;;;3.92;;
23260;SDS011;11799;47.740;-3.390;2022-10-22T01:04:18;26.38;;;3.35;;
23260;SDS011;11799;47.740;-3.390;2022-10-22T01:06:44;24.58;;;3.47;;
23260;SDS011;11799;47.740;-3.390;2022-10-22T01:29:33;24.17;;;3.35;;
23260;SDS011;11799;47.740;-3.390;2022-10-22T01:32:15;28.75;;;3.72;;
23260;SDS011;11799;47.740;-3.390;2022-10-22T01:34:45;24.08;;;3.60;;
23260;SDS011;11799;47.740;-3.390;2022-10-22T01:37:16;22.75;;;3.40;;
23260;SDS011;11799;47.740;-3.390;2022-10-22T01:39:44;19.70;;;3.42;;
23260;SDS011;11799;47.740;-3.390;2022-10-22T01:42:12;19.02;;;2.80;;
23260;SDS011;11799;47.740;-3.390;2022-10-22T01:44:38;33.00;;;3.63;;
23260;SDS011;11799;47.740;-3.390;2022-10-22T01:49:36;30.85;;;3.75;;
23260;SDS011;11799;47.740;-3.390;2022-10-22T01:54:54;31.13;;;3.85;;
23260;SDS011;11799;47.740;-3.390;2022-10-22T01:57:53;29.17;;;3.90;;
23260;SDS011;11799;47.740;-3.390;2022-10-22T02:00:23;28.48;;;3.30;;
23260;SDS011;11799;47.740;-3.390;2022-10-22T02:05:29;32.10;;;4.10;;
23260;SDS011;11799;47.740;-3.390;2022-10-22T02:08:11;14.20;;;2.78;;
23260;SDS011;11799;47.740;-3.390;2022-10-22T02:10:43;20.73;;;3.15;;
23260;SDS011;11799;47.740;-3.390;2022-10-22T02:13:11;24.35;;;3.72;;
23260;SDS011;11799;47.740;-3.390;2022-10-22T02:15:41;26.77;;;4.35;;
23260;SDS011;11799;47.740;-3.390;2022-10-22T02:18:10;23.92;;;3.83;;
23260;SDS011;11799;47.740;-3.390;2022-10-22T02:20:36;30.73;;;4.18;;
23260;SDS011;11799;47.740;-3.390;2022-10-22T02:23:05;38.22;;;4.47;;
23260;SDS011;11799;47.740;-3.390;2022-10-22T02:25:33;24.33;;;3.88;;
23260;SDS011;11799;47.740;-3.390;2022-10-22T02:30:59;24.25;;;3.83;;
23260;SDS011;11799;47.740;-3.390;2022-10-22T02:33:31;26.70;;;3.90;;
23260;SDS011;11799;47.740;-3.390;2022-10-22T02:36:02;34.35;;;3.97;;
23260;SDS011;11799;47.740;-3.390;2022-10-22T02:38:29;30.23;;;3.63;;
23260;SDS011;11799;47.740;-3.390;2022-10-22T02:40:56;36.35;;;3.83;;
23260;SDS011;11799;47.740;-3.390;2022-10-22T02:43:22;38.58;;;4.43;;
23260;SDS011;11799;47.740;-3.390;2022-10-22T02:45:49;42.47;;;4.65;;
23260;SDS011;11799;47.740;-3.390;2022-10-22T02:48:15;35.97;;;5.47;;
23260;SDS011;11799;47.740;-3.390;2022-10-22T02:50:41;38.13;;;4.68;;
23260;SDS011;11799;47.740;-3.390;2022-10-22T02:53:07;17.60;;;3.22;;
23260;SDS011;11799;47.740;-3.390;2022-10-22T02:55:32;31.55;;;3.70;;
23260;SDS011;11799;47.740;-3.390;2022-10-22T02:57:58;37.75;;;4.90;;
23260;SDS011;11799;47.740;-3.390;2022-10-22T03:00:23;34.38;;;4.50;;
23260;SDS011;11799;47.740;-3.390;2022-10-22T03:02:49;26.58;;;3.58;;
23260;SDS011;11799;47.740;-3.390;2022-10-22T03:05:14;30.45;;;4.47;;
23260;SDS011;11799;47.740;-3.390;2022-10-22T03:07:40;30.20;;;4.45;;
23260;SDS011;11799;47.740;-3.390;2022-10-22T03:10:06;32.22;;;4.47;;
23260;SDS011;11799;47.740;-3.390;2022-10-22T03:12:31;29.50;;;3.72;;
23260;SDS011;11799;47.740;-3.390;2022-10-22T03:14:57;25.33;;;3.78;;
23260;SDS011;11799;47.740;-3.390;2022-10-22T03:17:23;35.47;;;4.97;;
23260;SDS011;11799;47.740;-3.390;2022-10-22T03:19:48;29.90;;;4.18;;
23260;SDS011;11799;47.740;-3.390;2022-10-22T03:22:16;28.77;;;3.55;;
23260;SDS011;11799;47.740;-3.390;2022-10-22T03:24:47;39.42;;;4.30;;
23260;SDS011;11799;47.740;-3.390;2022-10-22T03:27:17;21.73;;;3.67;;
23260;SDS011;11799;47.740;-3.390;2022-10-22T03:29:46;32.05;;;4.20;;
23260;SDS011;11799;47.740;-3.390;2022-10-22T03:32:13;27.15;;;3.58;;
23260;SDS011;11799;47.740;-3.390;2022-10-22T03:34:39;29.15;;;4.03;;
23260;SDS011;11799;47.740;-3.390;2022-10-22T03:37:04;28.20;;;5.35;;
23260;SDS011;11799;47.740;-3.390;2022-10-22T03:39:30;12.68;;;2.55;;
23260;SDS011;11799;47.740;-3.390;2022-10-22T03:41:58;32.00;;;4.03;;
23260;SDS011;11799;47.740;-3.390;2022-10-22T03:44:25;22.42;;;3.00;;
23260;SDS011;11799;47.740;-3.390;2022-10-22T03:46:51;22.80;;;3.47;;
23260;SDS011;11799;47.740;-3.390;2022-10-22T03:49:16;33.13;;;4.32;;
23260;SDS011;11799;47.740;-3.390;2022-10-22T03:51:42;26.40;;;3.83;;
23260;SDS011;11799;47.740;-3.390;2022-10-22T03:54:07;28.90;;;4.00;;
23260;SDS011;11799;47.740;-3.390;2022-10-22T03:56:33;28.30;;;4.20;;
23260;SDS011;11799;47.740;-3.390;2022-10-22T03:58:59;23.85;;;3.47;;
23260;SDS011;11799;47.740;-3.390;2022-10-22T04:01:26;30.95;;;3.55;;
23260;SDS011;11799;47.740;-3.390;2022-10-22T04:03:53;35.90;;;5.07;;
23260;SDS011;11799;47.740;-3.390;2022-10-22T04:06:19;20.77;;;4.18;;
23260;SDS011;11799;47.740;-3.390;2022-10-22T04:08:45;24.15;;;3.90;;
23260;SDS011;11799;47.740;-3.390;2022-10-22T04:11:10;40.05;;;4.28;;
23260;SDS011;11799;47.740;-3.390;2022-10-22T04:13:37;25.88;;;3.40;;
23260;SDS011;11799;47.740;-3.390;2022-10-22T04:18:39;29.70;;;4.30;;
23260;SDS011;11799;47.740;-3.390;2022-10-22T04:21:06;34.20;;;4.10;;
23260;SDS011;11799;47.740;-3.390;2022-10-22T04:23:33;31.08;;;4.35;;
23260;SDS011;11799;47.740;-3.390;2022-10-22T04:25:59;33.60;;;4.47;;
23260;SDS011;11799;47.740;-3.390;2022-10-22T04:28:26;29.35;;;4.68;;
23260;SDS011;11799;47.740;-3.390;2022-10-22T04:30:52;25.67;;;3.40;;
23260;SDS011;11799;47.740;-3.390;2022-10-22T04:33:18;25.00;;;3.70;;
23260;SDS011;11799;47.740;-3.390;2022-10-22T04:35:43;33.42;;;4.25;;
23260;SDS011;11799;47.740;-3.390;2022-10-22T04:38:09;30.83;;;3.67;;
23260;SDS011;11799;47.740;-3.390;2022-10-22T04:40:34;24.40;;;4.13;;
23260;SDS011;11799;47.740;-3.390;2022-10-22T04:43:00;20.08;;;3.25;;
23260;SDS011;11799;47.740;-3.390;2022-10-22T04:45:25;27.48;;;3.85;;
23260;SDS011;11799;47.740;-3.390;2022-10-22T04:47:51;28.80;;;3.65;;
23260;SDS011;11799;47.740;-3.390;2022-10-22T04:50:17;23.45;;;3.40;;
23260;SDS011;11799;47.740;-3.390;2022-10-22T04:52:42;34.85;;;4.50;;
23260;SDS011;11799;47.740;-3.390;2022-10-22T04:55:08;30.10;;;4.07;;
23260;SDS011;11799;47.740;-3.390;2022-10-22T04:57:34;18.98;;;3.25;;
23260;SDS011;11799;47.740;-3.390;2022-10-22T04:59:59;35.50;;;4.30;;
23260;SDS011;11799;47.740;-3.390;2022-10-22T05:02:25;28.48;;;4.28;;
23260;SDS011;11799;47.740;-3.390;2022-10-22T05:04:50;35.08;;;4.28;;
23260;SDS011;11799;47.740;-3.390;2022-10-22T05:07:16;33.72;;;4.00;;
23260;SDS011;11799;47.740;-3.390;2022-10-22T05:09:41;16.90;;;3.25;;
23260;SDS011;11799;47.740;-3.390;2022-10-22T05:12:07;31.52;;;4.07;;
23260;SDS011;11799;47.740;-3.390;2022-10-22T05:14:32;29.73;;;3.80;;
23260;SDS011;11799;47.740;-3.390;2022-10-22T05:16:58;26.23;;;3.92;;
23260;SDS011;11799;47.740;-3.390;2022-10-22T05:19:25;27.42;;;3.97;;
23260;SDS011;11799;47.740;-3.390;2022-10-22T05:21:52;32.75;;;4.57;;
23260;SDS011;11799;47.740;-3.390;2022-10-22T05:24:20;26.77;;;3.25;;
23260;SDS011;11799;47.740;-3.390;2022-10-22T05:26:47;18.90;;;2.83;;
23260;SDS011;11799;47.740;-3.390;2022-10-22T05:29:17;23.92;;;4.15;;
23260;SDS011;11799;47.740;-3.390;2022-10-22T05:31:43;19.80;;;3.55;;
23260;SDS011;11799;47.740;-3.390;2022-10-22T05:34:09;26.08;;;3.35;;
23260;SDS011;11799;47.740;-3.390;2022-10-22T05:36:35;27.67;;;3.90;;
23260;SDS011;11799;47.740;-3.390;2022-10-22T05:39:01;36.25;;;3.50;;
23260;SDS011;11799;47.740;-3.390;2022-10-22T05:41:27;30.95;;;3.50;;
23260;SDS011;11799;47.740;-3.390;2022-10-22T05:43:53;24.42;;;3.75;;
23260;SDS011;11799;47.740;-3.390;2022-10-22T05:46:20;26.50;;;4.10;;
23260;SDS011;11799;47.740;-3.390;2022-10-22T05:48:48;26.20;;;3.33;;
23260;SDS011;11799;47.740;-3.390;2022-10-22T05:51:17;34.13;;;4.90;;
23260;SDS011;11799;47.740;-3.390;2022-10-22T05:53:43;34.83;;;3.95;;
23260;SDS011;11799;47.740;-3.390;2022-10-22T05:56:13;34.60;;;5.03;;
23260;SDS011;11799;47.740;-3.390;2022-10-22T05:58:40;30.30;;;4.03;;
23260;SDS011;11799;47.740;-3.390;2022-10-22T06:01:10;28.42;;;3.90;;
23260;SDS011;11799;47.740;-3.390;2022-10-22T06:03:39;23.75;;;3.50;;
23260;SDS011;11799;47.740;-3.390;2022-10-22T06:06:14;34.58;;;3.67;;
23260;SDS011;11799;47.740;-3.390;2022-10-22T06:08:45;25.17;;;3.75;;
23260;SDS011;11799;47.740;-3.390;2022-10-22T06:11:12;34.58;;;3.70;;
23260;SDS011;11799;47.740;-3.390;2022-10-22T06:13:38;29.25;;;4.05;;
23260;SDS011;11799;47.740;-3.390;2022-10-22T06:16:04;33.17;;;5.00;;
23260;SDS011;11799;47.740;-3.390;2022-10-22T06:18:29;39.15;;;3.95;;
23260;SDS011;11799;47.740;-3.390;2022-10-22T06:20:55;18.02;;;3.40;;
23260;SDS011;11799;47.740;-3.390;2022-10-22T06:23:20;30.70;;;4.00;;
23260;SDS011;11799;47.740;-3.390;2022-10-22T06:25:56;29.95;;;3.42;;
23260;SDS011;11799;47.740;-3.390;2022-10-22T06:28:22;27.02;;;4.78;;
23260;SDS011;11799;47.740;-3.390;2022-10-22T06:30:47;34.65;;;3.80;;
23260;SDS011;11799;47.740;-3.390;2022-10-22T06:33:13;21.88;;;3.38;;
23260;SDS011;11799;47.740;-3.390;2022-10-22T06:35:38;24.85;;;3.50;;
23260;SDS011;11799;47.740;-3.390;2022-10-22T06:38:04;25.95;;;3.80;;
23260;SDS011;11799;47.740;-3.390;2022-10-22T06:40:31;28.67;;;4.75;;
23260;SDS011;11799;47.740;-3.390;2022-10-22T06:43:00;35.00;;;3.85;;
23260;SDS011;11799;47.740;-3.390;2022-10-22T06:45:26;30.30;;;3.92;;
23260;SDS011;11799;47.740;-3.390;2022-10-22T06:47:51;17.50;;;3.05;;
23260;SDS011;11799;47.740;-3.390;2022-10-22T06:50:17;27.90;;;4.40;;
23260;SDS011;11799;47.740;-3.390;2022-10-22T06:52:43;27.58;;;4.13;;
23260;SDS011;11799;47.740;-3.390;2022-10-22T06:55:09;19.42;;;2.58;;
23260;SDS011;11799;47.740;-3.390;2022-10-22T06:57:35;32.60;;;4.63;;
23260;SDS011;11799;47.740;-3.390;2022-10-22T07:00:00;22.77;;;3.58;;
23260;SDS011;11799;47.740;-3.390;2022-10-22T07:02:26;23.95;;;3.08;;
23260;SDS011;11799;47.740;-3.390;2022-10-22T07:04:51;25.58;;;3.90;;
23260;SDS011;11799;47.740;-3.390;2022-10-22T07:07:17;18.75;;;2.97;;
23260;SDS011;11799;47.740;-3.390;2022-10-22T07:09:42;25.25;;;3.17;;
23260;SDS011;11799;47.740;-3.390;2022-10-22T07:12:10;17.33;;;2.50;;
23260;SDS011;11799;47.740;-3.390;2022-10-22T07:14:37;27.25;;;3.10;;
23260;SDS011;11799;47.740;-3.390;2022-10-22T07:17:03;18.85;;;3.17;;
23260;SDS011;11799;47.740;-3.390;2022-10-22T07:19:29;21.35;;;3.10;;
23260;SDS011;11799;47.740;-3.390;2022-10-22T07:21:55;26.98;;;3.50;;
23260;SDS011;11799;47.740;-3.390;2022-10-22T07:24:21;25.95;;;3.20;;
23260;SDS011;11799;47.740;-3.390;2022-10-22T07:26:46;19.00;;;3.50;;
23260;SDS011;11799;47.740;-3.390;2022-10-22T07:29:12;23.70;;;3.15;;
23260;SDS011;11799;47.740;-3.390;2022-10-22T07:31:40;14.20;;;2.33;;
23260;SDS011;11799;47.740;-3.390;2022-10-22T07:34:06;18.83;;;3.45;;
23260;SDS011;11799;47.740;-3.390;2022-10-22T07:36:31;28.95;;;3.65;;
23260;SDS011;11799;47.740;-3.390;2022-10-22T07:38:57;24.75;;;3.22;;
23260;SDS011;11799;47.740;-3.390;2022-10-22T07:41:24;24.35;;;3.22;;
23260;SDS011;11799;47.740;-3.390;2022-10-22T07:43:51;31.88;;;3.38;;
23260;SDS011;11799;47.740;-3.390;2022-10-22T07:46:16;25.50;;;2.80;;
23260;SDS011;11799;47.740;-3.390;2022-10-22T07:48:42;30.33;;;3.78;;
23260;SDS011;11799;47.740;-3.390;2022-10-22T07:51:08;20.63;;;2.88;;
23260;SDS011;11799;47.740;-3.390;2022-10-22T07:53:34;19.20;;;2.90;;
23260;SDS011;11799;47.740;-3.390;2022-10-22T07:55:59;18.92;;;2.47;;
23260;SDS011;11799;47.740;-3.390;2022-10-22T07:58:25;23.95;;;2.83;;
23260;SDS011;11799;47.740;-3.390;2022-10-22T08:00:53;23.60;;;2.97;;
23260;SDS011;11799;47.740;-3.390;2022-10-22T08:03:20;25.23;;;3.70;;
23260;SDS011;11799;47.740;-3.390;2022-10-22T08:05:45;20.42;;;2.70;;
23260;SDS011;11799;47.740;-3.390;2022-10-22T08:08:12;19.20;;;3.08;;
23260;SDS011;11799;47.740;-3.390;2022-10-22T08:10:39;23.95;;;3.50;;
23260;SDS011;11799;47.740;-3.390;2022-10-22T08:13:05;31.30;;;3.55;;
23260;SDS011;11799;47.740;-3.390;2022-10-22T08:15:31;38.97;;;3.67;;
23260;SDS011;11799;47.740;-3.390;2022-10-22T08:17:57;29.67;;;3.60;;
23260;SDS011;11799;47.740;-3.390;2022-10-22T08:20:23;18.17;;;3.05;;
23260;SDS011;11799;47.740;-3.390;2022-10-22T08:22:48;19.10;;;3.38;;
23260;SDS011;11799;47.740;-3.390;2022-10-22T08:25:14;15.07;;;2.70;;
23260;SDS011;11799;47.740;-3.390;2022-10-22T08:27:42;19.95;;;2.58;;
23260;SDS011;11799;47.740;-3.390;2022-10-22T08:30:07;30.48;;;3.83;;
23260;SDS011;11799;47.740;-3.390;2022-10-22T08:32:33;32.80;;;3.65;;
23260;SDS011;11799;47.740;-3.390;2022-10-22T08:34:59;21.02;;;3.17;;
23260;SDS011;11799;47.740;-3.390;2022-10-22T08:37:25;32.67;;;3.88;;
23260;SDS011;11799;47.740;-3.390;2022-10-22T08:39:50;28.50;;;4.05;;
23260;SDS011;11799;47.740;-3.390;2022-10-22T08:45:14;20.88;;;2.88;;
23260;SDS011;11799;47.740;-3.390;2022-10-22T08:53:05;23.63;;;3.67;;
23260;SDS011;11799;47.740;-3.390;2022-10-22T08:55:35;20.50;;;2.47;;
23260;SDS011;11799;47.740;-3.390;2022-10-22T08:58:10;18.08;;;2.67;;
23260;SDS011;11799;47.740;-3.390;2022-10-22T09:03:34;24.30;;;3.10;;
23260;SDS011;11799;47.740;-3.390;2022-10-22T09:06:21;28.05;;;3.42;;
23260;SDS011;11799;47.740;-3.390;2022-10-22T09:08:49;19.60;;;3.13;;
23260;SDS011;11799;47.740;-3.390;2022-10-22T09:13:56;30.38;;;3.85;;
23260;SDS011;11799;47.740;-3.390;2022-10-22T09:16:32;28.00;;;3.88;;
23260;SDS011;11799;47.740;-3.390;2022-10-22T09:21:45;23.88;;;3.05;;
23260;SDS011;11799;47.740;-3.390;2022-10-22T09:24:42;28.70;;;3.72;;
23260;SDS011;11799;47.740;-3.390;2022-10-22T09:27:11;27.77;;;3.40;;
23260;SDS011;11799;47.740;-3.390;2022-10-22T09:29:37;22.10;;;3.53;;
23260;SDS011;11799;47.740;-3.390;2022-10-22T09:32:03;24.42;;;3.28;;
23260;SDS011;11799;47.740;-3.390;2022-10-22T09:34:29;29.70;;;4.13;;
23260;SDS011;11799;47.740;-3.390;2022-10-22T09:37:06;27.13;;;3.63;;
23260;SDS011;11799;47.740;-3.390;2022-10-22T09:42:01;24.90;;;3.53;;
23260;SDS011;11799;47.740;-3.390;2022-10-22T09:44:27;30.27;;;3.85;;
23260;SDS011;11799;47.740;-3.390;2022-10-22T09:46:53;25.52;;;3.75;;
23260;SDS011;11799;47.740;-3.390;2022-10-22T09:49:20;32.35;;;3.45;;
23260;SDS011;11799;47.740;-3.390;2022-10-22T09:51:55;26.20;;;3.72;;
23260;SDS011;11799;47.740;-3.390;2022-10-22T09:54:23;23.77;;;3.60;;
23260;SDS011;11799;47.740;-3.390;2022-10-22T09:57:34;28.92;;;3.55;;
23260;SDS011;11799;47.740;-3.390;2022-10-22T09:59:42;24.83;;;4.00;;
23260;SDS011;11799;47.740;-3.390;2022-10-22T10:02:13;28.48;;;3.85;;
23260;SDS011;11799;47.740;-3.390;2022-10-22T10:04:54;34.28;;;3.70;;
23260;SDS011;11799;47.740;-3.390;2022-10-22T10:07:21;28.83;;;3.50;;
23260;SDS011;11799;47.740;-3.390;2022-10-22T10:09:49;26.23;;;3.35;;
23260;SDS011;11799;47.740;-3.390;2022-10-22T10:15:21;27.70;;;3.80;;
23260;SDS011;11799;47.740;-3.390;2022-10-22T10:21:11;24.40;;;4.20;;
23260;SDS011;11799;47.740;-3.390;2022-10-22T10:23:21;17.50;;;2.83;;
23260;SDS011;11799;47.740;-3.390;2022-10-22T10:26:09;30.92;;;3.92;;
23260;SDS011;11799;47.740;-3.390;2022-10-22T10:39:28;23.65;;;2.95;;
23260;SDS011;11799;47.740;-3.390;2022-10-22T10:42:06;21.60;;;3.80;;
23260;SDS011;11799;47.740;-3.390;2022-10-22T10:44:47;13.40;;;2.67;;
23260;SDS011;11799;47.740;-3.390;2022-10-22T10:50:10;15.48;;;2.75;;
23260;SDS011;11799;47.740;-3.390;2022-10-22T10:52:54;18.80;;;2.67;;
23260;SDS011;11799;47.740;-3.390;2022-10-22T10:55:29;15.13;;;2.55;;
23260;SDS011;11799;47.740;-3.390;2022-10-22T10:58:03;17.48;;;2.40;;
23260;SDS011;11799;47.740;-3.390;2022-10-22T11:00:42;14.10;;;2.20;;
23260;SDS011;11799;47.740;-3.390;2022-10-22T11:06:18;11.60;;;1.92;;
23260;SDS011;11799;47.740;-3.390;2022-10-22T11:09:07;16.77;;;2.40;;
23260;SDS011;11799;47.740;-3.390;2022-10-22T11:11:46;13.65;;;3.40;;
23260;SDS011;11799;47.740;-3.390;2022-10-22T11:19:22;13.27;;;2.75;;
23260;SDS011;11799;47.740;-3.390;2022-10-22T11:22:00;13.57;;;2.60;;
23260;SDS011;11799;47.740;-3.390;2022-10-22T11:24:46;14.65;;;2.08;;
23260;SDS011;11799;47.740;-3.390;2022-10-22T11:30:13;12.77;;;2.30;;
23260;SDS011;11799;47.740;-3.390;2022-10-22T11:32:41;16.77;;;3.38;;
23260;SDS011;11799;47.740;-3.390;2022-10-22T11:35:14;18.55;;;2.58;;
23260;SDS011;11799;47.740;-3.390;2022-10-22T11:37:43;16.25;;;2.85;;
23260;SDS011;11799;47.740;-3.390;2022-10-22T11:40:16;15.38;;;3.08;;
23260;SDS011;11799;47.740;-3.390;2022-10-22T11:42:47;17.95;;;2.65;;
23260;SDS011;11799;47.740;-3.390;2022-10-22T11:47:58;20.42;;;2.83;;
23260;SDS011;11799;47.740;-3.390;2022-10-22T11:55:52;13.23;;;2.78;;
23260;SDS011;11799;47.740;-3.390;2022-10-22T12:01:16;15.95;;;2.70;;
23260;SDS011;11799;47.740;-3.390;2022-10-22T12:03:52;11.07;;;2.67;;
23260;SDS011;11799;47.740;-3.390;2022-10-22T12:06:51;9.80;;;2.10;;
23260;SDS011;11799;47.740;-3.390;2022-10-22T12:09:23;12.65;;;2.50;;
23260;SDS011;11799;47.740;-3.390;2022-10-22T12:11:54;13.57;;;1.95;;
23260;SDS011;11799;47.740;-3.390;2022-10-22T12:14:31;12.15;;;2.42;;
23260;SDS011;11799;47.740;-3.390;2022-10-22T12:17:11;20.23;;;2.72;;
23260;SDS011;11799;47.740;-3.390;2022-10-22T12:19:41;14.38;;;2.60;;
23260;SDS011;11799;47.740;-3.390;2022-10-22T12:24:36;10.63;;;2.10;;
23260;SDS011;11799;47.740;-3.390;2022-10-22T12:27:24;8.65;;;1.88;;
23260;SDS011;11799;47.740;-3.390;2022-10-22T12:29:55;9.18;;;1.95;;
23260;SDS011;11799;47.740;-3.390;2022-10-22T12:32:25;12.35;;;2.10;;
23260;SDS011;11799;47.740;-3.390;2022-10-22T12:34:57;18.02;;;2.17;;
23260;SDS011;11799;47.740;-3.390;2022-10-22T12:37:30;10.82;;;1.70;;
23260;SDS011;11799;47.740;-3.390;2022-10-22T12:39:59;8.18;;;2.10;;
23260;SDS011;11799;47.740;-3.390;2022-10-22T12:42:25;10.98;;;1.65;;
23260;SDS011;11799;47.740;-3.390;2022-10-22T12:44:54;13.23;;;2.28;;
23260;SDS011;11799;47.740;-3.390;2022-10-22T12:47:20;11.45;;;2.38;;
23260;SDS011;11799;47.740;-3.390;2022-10-22T12:49:47;9.43;;;2.30;;
23260;SDS011;11799;47.740;-3.390;2022-10-22T12:52:18;11.65;;;2.72;;
23260;SDS011;11799;47.740;-3.390;2022-10-22T12:54:46;9.43;;;2.00;;
23260;SDS011;11799;47.740;-3.390;2022-10-22T12:57:17;9.23;;;1.88;;
23260;SDS011;11799;47.740;-3.390;2022-10-22T12:59:47;10.38;;;1.83;;
23260;SDS011;11799;47.740;-3.390;2022-10-22T13:02:22;14.35;;;2.35;;
23260;SDS011;11799;47.740;-3.390;2022-10-22T13:07:52;13.57;;;2.53;;
23260;SDS011;11799;47.740;-3.390;2022-10-22T13:10:30;15.32;;;2.45;;
23260;SDS011;11799;47.740;-3.390;2022-10-22T13:13:00;14.88;;;2.97;;
23260;SDS011;11799;47.740;-3.390;2022-10-22T13:15:32;12.43;;;2.63;;
23260;SDS011;11799;47.740;-3.390;2022-10-22T13:18:18;19.05;;;2.97;;
23260;SDS011;11799;47.740;-3.390;2022-10-22T13:20:56;10.57;;;2.63;;
23260;SDS011;11799;47.740;-3.390;2022-10-22T13:23:26;10.73;;;2.22;;
23260;SDS011;11799;47.740;-3.390;2022-10-22T13:28:37;12.65;;;3.20;;
23260;SDS011;11799;47.740;-3.390;2022-10-22T13:31:16;15.10;;;2.20;;
23260;SDS011;11799;47.740;-3.390;2022-10-22T13:33:50;10.05;;;2.13;;
23260;SDS011;11799;47.740;-3.390;2022-10-22T13:36:19;13.90;;;2.00;;
23260;SDS011;11799;47.740;-3.390;2022-10-22T13:38:45;7.63;;;1.80;;
23260;SDS011;11799;47.740;-3.390;2022-10-22T13:43:50;17.55;;;2.13;;
23260;SDS011;11799;47.740;-3.390;2022-10-22T13:46:16;9.30;;;2.13;;
23260;SDS011;11799;47.740;-3.390;2022-10-22T13:48:43;13.55;;;2.20;;
23260;SDS011;11799;47.740;-3.390;2022-10-22T13:51:14;11.93;;;2.38;;
23260;SDS011;11799;47.740;-3.390;2022-10-22T13:53:43;12.13;;;2.25;;
23260;SDS011;11799;47.740;-3.390;2022-10-22T13:56:14;20.90;;;2.92;;
23260;SDS011;11799;47.740;-3.390;2022-10-22T14:01:10;7.20;;;1.70;;
23260;SDS011;11799;47.740;-3.390;2022-10-22T14:03:40;5.95;;;1.55;;
23260;SDS011;11799;47.740;-3.390;2022-10-22T14:06:06;9.40;;;1.63;;
23260;SDS011;11799;47.740;-3.390;2022-10-22T14:08:37;3.72;;;1.33;;
23260;SDS011;11799;47.740;-3.390;2022-10-22T14:11:03;6.88;;;1.73;;
23260;SDS011;11799;47.740;-3.390;2022-10-22T14:13:28;6.82;;;1.40;;
23260;SDS011;11799;47.740;-3.390;2022-10-22T14:15:54;5.68;;;1.27;;
23260;SDS011;11799;47.740;-3.390;2022-10-22T14:18:21;3.10;;;1.23;;
23260;SDS011;11799;47.740;-3.390;2022-10-22T14:20:57;6.88;;;1.38;;
23260;SDS011;11799;47.740;-3.390;2022-10-22T14:23:26;6.65;;;1.40;;
23260;SDS011;11799;47.740;-3.390;2022-10-22T14:25:53;5.78;;;1.60;;
23260;SDS011;11799;47.740;-3.390;2022-10-22T14:28:20;12.25;;;1.98;;
23260;SDS011;11799;47.740;-3.390;2022-10-22T14:30:46;6.57;;;1.63;;
23260;SDS011;11799;47.740;-3.390;2022-10-22T14:33:13;8.32;;;1.95;;
23260;SDS011;11799;47.740;-3.390;2022-10-22T14:35:41;9.75;;;1.83;;
23260;SDS011;11799;47.740;-3.390;2022-10-22T14:38:06;10.30;;;2.45;;
23260;SDS011;11799;47.740;-3.390;2022-10-22T14:40:32;19.70;;;3.35;;
23260;SDS011;11799;47.740;-3.390;2022-10-22T14:42:58;11.02;;;2.03;;
23260;SDS011;11799;47.740;-3.390;2022-10-22T14:45:24;11.00;;;2.22;;
23260;SDS011;11799;47.740;-3.390;2022-10-22T14:47:51;9.50;;;3.00;;
23260;SDS011;11799;47.740;-3.390;2022-10-22T14:50:21;10.68;;;2.20;;
23260;SDS011;11799;47.740;-3.390;2022-10-22T14:52:48;9.55;;;2.35;;
23260;SDS011;11799;47.740;-3.390;2022-10-22T14:55:14;10.65;;;2.65;;
23260;SDS011;11799;47.740;-3.390;2022-10-22T14:57:41;10.82;;;2.58;;
23260;SDS011;11799;47.740;-3.390;2022-10-22T15:00:11;8.98;;;2.20;;
23260;SDS011;11799;47.740;-3.390;2022-10-22T15:02:42;16.05;;;2.33;;
23260;SDS011;11799;47.740;-3.390;2022-10-22T15:05:08;15.20;;;2.25;;
23260;SDS011;11799;47.740;-3.390;2022-10-22T15:07:34;12.45;;;3.05;;
23260;SDS011;11799;47.740;-3.390;2022-10-22T15:10:00;10.80;;;2.42;;
23260;SDS011;11799;47.740;-3.390;2022-10-22T15:12:26;14.20;;;3.08;;
23260;SDS011;11799;47.740;-3.390;2022-10-22T15:14:51;14.70;;;3.15;;
23260;SDS011;11799;47.740;-3.390;2022-10-22T15:17:17;10.55;;;2.13;;
23260;SDS011;11799;47.740;-3.390;2022-10-22T15:19:43;11.05;;;2.33;;
23260;SDS011;11799;47.740;-3.390;2022-10-22T15:22:09;18.95;;;2.72;;
23260;SDS011;11799;47.740;-3.390;2022-10-22T15:24:35;11.88;;;2.72;;
23260;SDS011;11799;47.740;-3.390;2022-10-22T15:27:01;8.85;;;2.25;;
23260;SDS011;11799;47.740;-3.390;2022-10-22T15:29:28;9.90;;;2.47;;
23260;SDS011;11799;47.740;-3.390;2022-10-22T15:31:55;13.27;;;3.10;;
23260;SDS011;11799;47.740;-3.390;2022-10-22T15:34:28;9.85;;;2.30;;
23260;SDS011;11799;47.740;-3.390;2022-10-22T15:36:57;13.43;;;2.65;;
23260;SDS011;11799;47.740;-3.390;2022-10-22T15:39:24;14.32;;;3.00;;
23260;SDS011;11799;47.740;-3.390;2022-10-22T15:41:50;9.55;;;2.55;;
23260;SDS011;11799;47.740;-3.390;2022-10-22T15:44:27;13.00;;;2.70;;
23260;SDS011;11799;47.740;-3.390;2022-10-22T15:46:54;8.25;;;2.45;;
23260;SDS011;11799;47.740;-3.390;2022-10-22T15:49:21;11.32;;;2.63;;
23260;SDS011;11799;47.740;-3.390;2022-10-22T15:51:47;14.38;;;2.78;;
23260;SDS011;11799;47.740;-3.390;2022-10-22T15:54:14;8.77;;;2.03;;
23260;SDS011;11799;47.740;-3.390;2022-10-22T15:56:41;15.13;;;2.85;;
23260;SDS011;11799;47.740;-3.390;2022-10-22T15:59:08;18.10;;;2.72;;
23260;SDS011;11799;47.740;-3.390;2022-10-22T16:01:35;14.00;;;3.42;;
23260;SDS011;11799;47.740;-3.390;2022-10-22T16:04:01;13.32;;;3.17;;
23260;SDS011;11799;47.740;-3.390;2022-10-22T16:06:31;14.05;;;3.08;;
23260;SDS011;11799;47.740;-3.390;2022-10-22T16:08:59;23.77;;;3.67;;
23260;SDS011;11799;47.740;-3.390;2022-10-22T16:11:27;26.42;;;4.78;;
23260;SDS011;11799;47.740;-3.390;2022-10-22T16:13:57;17.67;;;3.25;;
23260;SDS011;11799;47.740;-3.390;2022-10-22T16:16:24;15.15;;;3.10;;
23260;SDS011;11799;47.740;-3.390;2022-10-22T16:18:52;22.25;;;3.83;;
23260;SDS011;11799;47.740;-3.390;2022-10-22T16:21:18;14.35;;;3.83;;